sensor_id;sensor_type;location;lat;lon;timestamp;temperature;humidity
70074;DHT22;57445;51.058;3.698;2022-09-12T00:01:22;19.30;91.50
70074;DHT22;57445;51.058;3.698;2022-09-12T00:03:57;19.10;91.40
70074;DHT22;57445;51.058;3.698;2022-09-12T00:06:27;19.20;91.30
70074;DHT22;57445;51.058;3.698;2022-09-12T00:08:57;19.20;91.30
70074;DHT22;57445;51.058;3.698;2022-09-12T00:11:25;19.10;91.70
70074;DHT22;57445;51.058;3.698;2022-09-12T00:13:59;19.10;91.50
70074;DHT22;57445;51.058;3.698;2022-09-12T00:16:30;19.00;91.60
70074;DHT22;57445;51.058;3.698;2022-09-12T00:18:58;19.00;91.70
70074;DHT22;57445;51.058;3.698;2022-09-12T00:21:32;18.90;91.70
70074;DHT22;57445;51.058;3.698;2022-09-12T00:24:00;19.00;91.80
70074;DHT22;57445;51.058;3.698;2022-09-12T00:26:28;19.00;91.90
70074;DHT22;57445;51.058;3.698;2022-09-12T00:29:00;18.90;91.70
70074;DHT22;57445;51.058;3.698;2022-09-12T00:31:29;18.90;92.00
70074;DHT22;57445;51.058;3.698;2022-09-12T00:33:58;18.80;92.00
70074;DHT22;57445;51.058;3.698;2022-09-12T00:36:28;18.80;92.10
70074;DHT22;57445;51.058;3.698;2022-09-12T00:38:56;18.80;92.10
70074;DHT22;57445;51.058;3.698;2022-09-12T00:41:31;18.80;92.10
70074;DHT22;57445;51.058;3.698;2022-09-12T00:44:00;18.70;92.10
70074;DHT22;57445;51.058;3.698;2022-09-12T00:46:38;18.50;92.30
70074;DHT22;57445;51.058;3.698;2022-09-12T00:49:13;18.40;92.50
70074;DHT22;57445;51.058;3.698;2022-09-12T00:51:44;18.50;92.60
70074;DHT22;57445;51.058;3.698;2022-09-12T00:54:16;18.60;92.50
70074;DHT22;57445;51.058;3.698;2022-09-12T00:56:52;18.70;92.40
70074;DHT22;57445;51.058;3.698;2022-09-12T00:59:26;18.70;92.30
70074;DHT22;57445;51.058;3.698;2022-09-12T01:02:00;18.80;92.30
70074;DHT22;57445;51.058;3.698;2022-09-12T01:04:34;18.70;92.30
70074;DHT22;57445;51.058;3.698;2022-09-12T01:07:09;18.70;92.30
70074;DHT22;57445;51.058;3.698;2022-09-12T01:09:37;18.80;92.30
70074;DHT22;57445;51.058;3.698;2022-09-12T01:12:12;18.80;92.10
70074;DHT22;57445;51.058;3.698;2022-09-12T01:14:41;18.90;92.10
70074;DHT22;57445;51.058;3.698;2022-09-12T01:17:14;18.80;92.10
70074;DHT22;57445;51.058;3.698;2022-09-12T01:20:05;18.90;92.00
70074;DHT22;57445;51.058;3.698;2022-09-12T01:23:09;19.10;92.10
70074;DHT22;57445;51.058;3.698;2022-09-12T01:25:47;19.00;91.90
70074;DHT22;57445;51.058;3.698;2022-09-12T01:28:52;19.10;92.00
70074;DHT22;57445;51.058;3.698;2022-09-12T01:31:29;18.90;92.00
70074;DHT22;57445;51.058;3.698;2022-09-12T01:34:09;18.90;92.20
70074;DHT22;57445;51.058;3.698;2022-09-12T01:36:46;18.80;92.20
70074;DHT22;57445;51.058;3.698;2022-09-12T01:39:26;18.90;92.10
70074;DHT22;57445;51.058;3.698;2022-09-12T01:42:06;18.80;92.40
70074;DHT22;57445;51.058;3.698;2022-09-12T01:44:46;18.80;92.30
70074;DHT22;57445;51.058;3.698;2022-09-12T01:47:28;18.90;92.20
70074;DHT22;57445;51.058;3.698;2022-09-12T01:50:00;18.80;92.20
70074;DHT22;57445;51.058;3.698;2022-09-12T01:52:36;18.80;92.30
70074;DHT22;57445;51.058;3.698;2022-09-12T01:55:13;18.80;92.30
70074;DHT22;57445;51.058;3.698;2022-09-12T01:57:47;18.90;92.20
70074;DHT22;57445;51.058;3.698;2022-09-12T02:00:21;18.90;92.00
70074;DHT22;57445;51.058;3.698;2022-09-12T02:02:55;18.90;92.10
70074;DHT22;57445;51.058;3.698;2022-09-12T02:05:28;18.80;92.10
70074;DHT22;57445;51.058;3.698;2022-09-12T02:08:00;18.70;92.30
70074;DHT22;57445;51.058;3.698;2022-09-12T02:10:31;18.60;92.50
70074;DHT22;57445;51.058;3.698;2022-09-12T02:13:06;18.50;92.70
70074;DHT22;57445;51.058;3.698;2022-09-12T02:15:46;18.60;92.80
70074;DHT22;57445;51.058;3.698;2022-09-12T02:18:24;18.50;92.80
70074;DHT22;57445;51.058;3.698;2022-09-12T02:20:55;18.60;92.60
70074;DHT22;57445;51.058;3.698;2022-09-12T02:23:26;18.70;92.50
70074;DHT22;57445;51.058;3.698;2022-09-12T02:25:57;18.60;92.80
70074;DHT22;57445;51.058;3.698;2022-09-12T02:28:29;18.70;92.50
70074;DHT22;57445;51.058;3.698;2022-09-12T02:31:02;19.00;92.50
70074;DHT22;57445;51.058;3.698;2022-09-12T02:33:40;18.70;92.60
70074;DHT22;57445;51.058;3.698;2022-09-12T02:36:15;18.70;92.50
70074;DHT22;57445;51.058;3.698;2022-09-12T02:38:50;18.60;92.60
70074;DHT22;57445;51.058;3.698;2022-09-12T02:41:25;18.60;92.60
70074;DHT22;57445;51.058;3.698;2022-09-12T02:43:57;18.60;92.60
70074;DHT22;57445;51.058;3.698;2022-09-12T02:46:30;18.60;92.70
70074;DHT22;57445;51.058;3.698;2022-09-12T02:49:01;18.40;92.90
70074;DHT22;57445;51.058;3.698;2022-09-12T02:51:33;18.30;93.10
70074;DHT22;57445;51.058;3.698;2022-09-12T02:54:01;18.20;93.30
70074;DHT22;57445;51.058;3.698;2022-09-12T02:56:32;18.30;93.20
70074;DHT22;57445;51.058;3.698;2022-09-12T02:59:06;18.40;93.20
70074;DHT22;57445;51.058;3.698;2022-09-12T03:01:47;18.40;93.30
70074;DHT22;57445;51.058;3.698;2022-09-12T03:04:37;18.50;92.80
70074;DHT22;57445;51.058;3.698;2022-09-12T03:07:15;18.30;93.20
70074;DHT22;57445;51.058;3.698;2022-09-12T03:09:48;18.40;93.00
70074;DHT22;57445;51.058;3.698;2022-09-12T03:12:33;18.20;93.20
70074;DHT22;57445;51.058;3.698;2022-09-12T03:15:13;18.20;93.40
70074;DHT22;57445;51.058;3.698;2022-09-12T03:17:57;18.10;93.50
70074;DHT22;57445;51.058;3.698;2022-09-12T03:20:40;18.10;93.50
70074;DHT22;57445;51.058;3.698;2022-09-12T03:23:18;18.20;93.40
70074;DHT22;57445;51.058;3.698;2022-09-12T03:25:50;18.20;93.40
70074;DHT22;57445;51.058;3.698;2022-09-12T03:28:21;18.00;93.50
70074;DHT22;57445;51.058;3.698;2022-09-12T03:30:49;17.90;93.70
70074;DHT22;57445;51.058;3.698;2022-09-12T03:33:21;18.20;93.50
70074;DHT22;57445;51.058;3.698;2022-09-12T03:35:51;18.20;93.20
70074;DHT22;57445;51.058;3.698;2022-09-12T03:38:19;18.50;93.40
70074;DHT22;57445;51.058;3.698;2022-09-12T03:40:47;18.10;93.40
70074;DHT22;57445;51.058;3.698;2022-09-12T03:43:19;18.20;93.20
70074;DHT22;57445;51.058;3.698;2022-09-12T03:45:49;18.20;93.10
70074;DHT22;57445;51.058;3.698;2022-09-12T03:48:18;18.20;93.10
70074;DHT22;57445;51.058;3.698;2022-09-12T03:50:46;18.10;93.10
70074;DHT22;57445;51.058;3.698;2022-09-12T03:53:19;18.10;93.30
70074;DHT22;57445;51.058;3.698;2022-09-12T03:55:51;18.10;93.20
70074;DHT22;57445;51.058;3.698;2022-09-12T03:58:24;17.90;93.50
70074;DHT22;57445;51.058;3.698;2022-09-12T04:01:00;17.80;93.70
70074;DHT22;57445;51.058;3.698;2022-09-12T04:03:32;17.80;93.90
70074;DHT22;57445;51.058;3.698;2022-09-12T04:06:06;17.80;94.00
70074;DHT22;57445;51.058;3.698;2022-09-12T04:08:35;17.70;94.00
70074;DHT22;57445;51.058;3.698;2022-09-12T04:11:04;17.50;94.50
70074;DHT22;57445;51.058;3.698;2022-09-12T04:13:33;17.40;94.50
70074;DHT22;57445;51.058;3.698;2022-09-12T04:16:05;17.30;94.80
70074;DHT22;57445;51.058;3.698;2022-09-12T04:18:34;17.40;94.80
70074;DHT22;57445;51.058;3.698;2022-09-12T04:21:03;17.60;94.50
70074;DHT22;57445;51.058;3.698;2022-09-12T04:23:37;17.60;94.40
70074;DHT22;57445;51.058;3.698;2022-09-12T04:26:06;17.80;94.00
70074;DHT22;57445;51.058;3.698;2022-09-12T04:28:36;17.70;93.90
70074;DHT22;57445;51.058;3.698;2022-09-12T04:31:10;17.90;93.50
70074;DHT22;57445;51.058;3.698;2022-09-12T04:33:45;17.80;93.90
70074;DHT22;57445;51.058;3.698;2022-09-12T04:36:17;17.70;93.90
70074;DHT22;57445;51.058;3.698;2022-09-12T04:38:51;17.60;94.00
70074;DHT22;57445;51.058;3.698;2022-09-12T04:41:25;17.80;93.80
70074;DHT22;57445;51.058;3.698;2022-09-12T04:43:54;18.00;93.80
70074;DHT22;57445;51.058;3.698;2022-09-12T04:46:24;17.70;93.80
70074;DHT22;57445;51.058;3.698;2022-09-12T04:48:52;17.70;93.70
70074;DHT22;57445;51.058;3.698;2022-09-12T04:51:22;17.60;93.90
70074;DHT22;57445;51.058;3.698;2022-09-12T04:53:59;17.80;93.50
70074;DHT22;57445;51.058;3.698;2022-09-12T04:56:27;17.90;93.50
70074;DHT22;57445;51.058;3.698;2022-09-12T04:58:57;17.70;93.40
70074;DHT22;57445;51.058;3.698;2022-09-12T05:01:30;17.80;93.50
70074;DHT22;57445;51.058;3.698;2022-09-12T05:03:58;17.60;93.70
70074;DHT22;57445;51.058;3.698;2022-09-12T05:06:28;17.50;93.90
70074;DHT22;57445;51.058;3.698;2022-09-12T05:09:03;17.40;94.00
70074;DHT22;57445;51.058;3.698;2022-09-12T05:11:37;17.40;94.00
70074;DHT22;57445;51.058;3.698;2022-09-12T05:14:06;17.50;93.70
70074;DHT22;57445;51.058;3.698;2022-09-12T05:16:38;17.60;93.40
70074;DHT22;57445;51.058;3.698;2022-09-12T05:19:08;17.60;93.30
70074;DHT22;57445;51.058;3.698;2022-09-12T05:21:37;17.50;93.60
70074;DHT22;57445;51.058;3.698;2022-09-12T05:24:06;17.50;93.60
70074;DHT22;57445;51.058;3.698;2022-09-12T05:26:34;17.30;93.80
70074;DHT22;57445;51.058;3.698;2022-09-12T05:29:03;17.30;94.00
70074;DHT22;57445;51.058;3.698;2022-09-12T05:31:31;17.30;94.00
70074;DHT22;57445;51.058;3.698;2022-09-12T05:33:59;17.40;93.80
70074;DHT22;57445;51.058;3.698;2022-09-12T05:36:28;17.40;93.70
70074;DHT22;57445;51.058;3.698;2022-09-12T05:39:00;17.40;93.70
70074;DHT22;57445;51.058;3.698;2022-09-12T05:41:35;17.50;93.60
70074;DHT22;57445;51.058;3.698;2022-09-12T05:44:11;17.50;93.40
70074;DHT22;57445;51.058;3.698;2022-09-12T05:46:44;17.50;93.40
70074;DHT22;57445;51.058;3.698;2022-09-12T05:49:13;17.60;93.20
70074;DHT22;57445;51.058;3.698;2022-09-12T05:51:46;17.60;93.30
70074;DHT22;57445;51.058;3.698;2022-09-12T05:54:18;17.60;93.00
70074;DHT22;57445;51.058;3.698;2022-09-12T05:56:48;17.70;93.00
70074;DHT22;57445;51.058;3.698;2022-09-12T05:59:20;17.90;92.70
70074;DHT22;57445;51.058;3.698;2022-09-12T06:01:49;18.10;92.40
70074;DHT22;57445;51.058;3.698;2022-09-12T06:04:22;18.30;92.10
70074;DHT22;57445;51.058;3.698;2022-09-12T06:06:50;18.70;91.40
70074;DHT22;57445;51.058;3.698;2022-09-12T06:09:17;19.10;90.50
70074;DHT22;57445;51.058;3.698;2022-09-12T06:11:47;19.60;90.00
70074;DHT22;57445;51.058;3.698;2022-09-12T06:14:15;19.90;88.50
70074;DHT22;57445;51.058;3.698;2022-09-12T06:16:49;20.20;87.30
70074;DHT22;57445;51.058;3.698;2022-09-12T06:19:18;20.30;86.50
70074;DHT22;57445;51.058;3.698;2022-09-12T06:21:50;20.60;85.00
70074;DHT22;57445;51.058;3.698;2022-09-12T06:24:18;21.00;83.70
70074;DHT22;57445;51.058;3.698;2022-09-12T06:26:48;21.00;83.40
70074;DHT22;57445;51.058;3.698;2022-09-12T06:29:18;21.10;82.90
70074;DHT22;57445;51.058;3.698;2022-09-12T06:31:50;21.00;82.90
70074;DHT22;57445;51.058;3.698;2022-09-12T06:34:22;20.80;84.10
70074;DHT22;57445;51.058;3.698;2022-09-12T06:36:52;20.40;84.70
70074;DHT22;57445;51.058;3.698;2022-09-12T06:39:21;20.10;85.30
70074;DHT22;57445;51.058;3.698;2022-09-12T06:41:51;19.80;86.20
70074;DHT22;57445;51.058;3.698;2022-09-12T06:44:24;19.60;87.20
70074;DHT22;57445;51.058;3.698;2022-09-12T06:46:51;19.30;88.40
70074;DHT22;57445;51.058;3.698;2022-09-12T06:49:26;19.20;88.80
70074;DHT22;57445;51.058;3.698;2022-09-12T06:51:54;18.90;89.90
70074;DHT22;57445;51.058;3.698;2022-09-12T06:54:26;19.10;89.40
70074;DHT22;57445;51.058;3.698;2022-09-12T06:56:55;19.10;89.00
70074;DHT22;57445;51.058;3.698;2022-09-12T06:59:27;19.20;88.60
70074;DHT22;57445;51.058;3.698;2022-09-12T07:01:55;19.20;88.80
70074;DHT22;57445;51.058;3.698;2022-09-12T07:04:28;19.50;88.30
70074;DHT22;57445;51.058;3.698;2022-09-12T07:06:58;19.40;88.00
70074;DHT22;57445;51.058;3.698;2022-09-12T07:09:26;19.80;87.00
70074;DHT22;57445;51.058;3.698;2022-09-12T07:12:01;19.30;88.10
70074;DHT22;57445;51.058;3.698;2022-09-12T07:14:29;19.40;88.20
70074;DHT22;57445;51.058;3.698;2022-09-12T07:16:57;19.40;88.10
70074;DHT22;57445;51.058;3.698;2022-09-12T07:19:29;19.60;88.30
70074;DHT22;57445;51.058;3.698;2022-09-12T07:22:01;19.70;87.20
70074;DHT22;57445;51.058;3.698;2022-09-12T07:24:29;20.00;85.80
70074;DHT22;57445;51.058;3.698;2022-09-12T07:26:57;19.90;86.20
70074;DHT22;57445;51.058;3.698;2022-09-12T07:29:26;20.00;86.60
70074;DHT22;57445;51.058;3.698;2022-09-12T07:31:58;19.90;86.80
70074;DHT22;57445;51.058;3.698;2022-09-12T07:34:27;19.90;86.50
70074;DHT22;57445;51.058;3.698;2022-09-12T07:36:54;19.80;87.30
70074;DHT22;57445;51.058;3.698;2022-09-12T07:39:22;19.70;87.80
70074;DHT22;57445;51.058;3.698;2022-09-12T07:41:49;19.90;87.40
70074;DHT22;57445;51.058;3.698;2022-09-12T07:44:17;20.10;86.60
70074;DHT22;57445;51.058;3.698;2022-09-12T07:46:46;20.00;86.80
70074;DHT22;57445;51.058;3.698;2022-09-12T07:49:15;20.20;86.50
70074;DHT22;57445;51.058;3.698;2022-09-12T07:51:43;20.20;86.50
70074;DHT22;57445;51.058;3.698;2022-09-12T07:54:10;20.40;85.50
70074;DHT22;57445;51.058;3.698;2022-09-12T07:56:38;20.60;84.70
70074;DHT22;57445;51.058;3.698;2022-09-12T07:59:06;20.50;85.00
70074;DHT22;57445;51.058;3.698;2022-09-12T08:01:38;20.70;84.00
70074;DHT22;57445;51.058;3.698;2022-09-12T08:04:08;20.50;85.00
70074;DHT22;57445;51.058;3.698;2022-09-12T08:06:35;20.60;85.50
70074;DHT22;57445;51.058;3.698;2022-09-12T08:09:08;20.40;85.70
70074;DHT22;57445;51.058;3.698;2022-09-12T08:11:37;20.60;84.40
70074;DHT22;57445;51.058;3.698;2022-09-12T08:14:05;21.00;82.80
70074;DHT22;57445;51.058;3.698;2022-09-12T08:16:37;21.30;82.60
70074;DHT22;57445;51.058;3.698;2022-09-12T08:19:10;21.10;82.70
70074;DHT22;57445;51.058;3.698;2022-09-12T08:21:38;21.30;82.30
70074;DHT22;57445;51.058;3.698;2022-09-12T08:24:06;21.40;81.90
70074;DHT22;57445;51.058;3.698;2022-09-12T08:26:34;21.50;81.80
70074;DHT22;57445;51.058;3.698;2022-09-12T08:29:06;21.50;81.70
70074;DHT22;57445;51.058;3.698;2022-09-12T08:31:33;21.60;81.90
70074;DHT22;57445;51.058;3.698;2022-09-12T08:34:03;21.60;81.20
70074;DHT22;57445;51.058;3.698;2022-09-12T08:36:37;21.70;80.90
70074;DHT22;57445;51.058;3.698;2022-09-12T08:39:05;21.70;81.30
70074;DHT22;57445;51.058;3.698;2022-09-12T08:41:37;21.60;81.30
70074;DHT22;57445;51.058;3.698;2022-09-12T08:44:18;21.80;81.20
70074;DHT22;57445;51.058;3.698;2022-09-12T08:46:59;21.90;80.40
70074;DHT22;57445;51.058;3.698;2022-09-12T08:49:33;21.80;80.30
70074;DHT22;57445;51.058;3.698;2022-09-12T08:52:11;22.00;79.80
70074;DHT22;57445;51.058;3.698;2022-09-12T08:54:42;22.40;78.60
70074;DHT22;57445;51.058;3.698;2022-09-12T08:57:11;22.30;78.70
70074;DHT22;57445;51.058;3.698;2022-09-12T08:59:42;22.00;79.70
70074;DHT22;57445;51.058;3.698;2022-09-12T09:05:18;22.30;78.50
70074;DHT22;57445;51.058;3.698;2022-09-12T09:08:14;22.70;78.40
70074;DHT22;57445;51.058;3.698;2022-09-12T09:10:48;23.00;76.70
70074;DHT22;57445;51.058;3.698;2022-09-12T09:13:31;23.20;76.40
70074;DHT22;57445;51.058;3.698;2022-09-12T09:16:23;23.20;76.00
70074;DHT22;57445;51.058;3.698;2022-09-12T09:18:53;23.20;75.80
70074;DHT22;57445;51.058;3.698;2022-09-12T09:21:28;22.90;77.30
70074;DHT22;57445;51.058;3.698;2022-09-12T09:24:01;23.10;76.00
70074;DHT22;57445;51.058;3.698;2022-09-12T09:26:42;23.20;76.80
70074;DHT22;57445;51.058;3.698;2022-09-12T09:29:16;23.60;74.50
70074;DHT22;57445;51.058;3.698;2022-09-12T09:31:51;23.60;74.30
70074;DHT22;57445;51.058;3.698;2022-09-12T09:34:23;23.10;75.60
70074;DHT22;57445;51.058;3.698;2022-09-12T09:36:54;23.00;76.00
70074;DHT22;57445;51.058;3.698;2022-09-12T09:39:37;22.90;76.80
70074;DHT22;57445;51.058;3.698;2022-09-12T09:42:17;23.60;75.10
70074;DHT22;57445;51.058;3.698;2022-09-12T09:44:49;23.80;73.90
70074;DHT22;57445;51.058;3.698;2022-09-12T09:47:23;23.90;73.80
70074;DHT22;57445;51.058;3.698;2022-09-12T09:49:56;24.10;73.50
70074;DHT22;57445;51.058;3.698;2022-09-12T09:52:27;24.40;72.20
70074;DHT22;57445;51.058;3.698;2022-09-12T09:55:01;24.30;71.80
70074;DHT22;57445;51.058;3.698;2022-09-12T09:57:42;23.90;73.50
70074;DHT22;57445;51.058;3.698;2022-09-12T10:00:26;24.10;72.60
70074;DHT22;57445;51.058;3.698;2022-09-12T10:03:22;24.00;72.70
70074;DHT22;57445;51.058;3.698;2022-09-12T10:05:58;23.60;73.60
70074;DHT22;57445;51.058;3.698;2022-09-12T10:08:28;23.40;74.40
70074;DHT22;57445;51.058;3.698;2022-09-12T10:11:00;23.90;73.60
70074;DHT22;57445;51.058;3.698;2022-09-12T10:13:39;24.40;72.30
70074;DHT22;57445;51.058;3.698;2022-09-12T10:16:17;24.90;71.00
70074;DHT22;57445;51.058;3.698;2022-09-12T10:18:45;25.40;69.50
70074;DHT22;57445;51.058;3.698;2022-09-12T10:21:17;25.50;68.70
70074;DHT22;57445;51.058;3.698;2022-09-12T10:23:47;25.20;69.70
70074;DHT22;57445;51.058;3.698;2022-09-12T10:26:19;25.40;69.10
70074;DHT22;57445;51.058;3.698;2022-09-12T10:28:53;25.60;68.80
70074;DHT22;57445;51.058;3.698;2022-09-12T10:31:28;25.60;68.00
70074;DHT22;57445;51.058;3.698;2022-09-12T10:34:00;25.80;67.80
70074;DHT22;57445;51.058;3.698;2022-09-12T10:36:35;25.70;67.30
70074;DHT22;57445;51.058;3.698;2022-09-12T10:39:04;25.60;68.40
70074;DHT22;57445;51.058;3.698;2022-09-12T10:41:36;25.70;67.30
70074;DHT22;57445;51.058;3.698;2022-09-12T10:44:06;25.30;67.00
70074;DHT22;57445;51.058;3.698;2022-09-12T10:46:35;25.10;68.30
70074;DHT22;57445;51.058;3.698;2022-09-12T10:49:23;25.00;67.70
70074;DHT22;57445;51.058;3.698;2022-09-12T10:51:52;25.10;68.20
70074;DHT22;57445;51.058;3.698;2022-09-12T10:54:26;25.70;66.70
70074;DHT22;57445;51.058;3.698;2022-09-12T10:57:16;26.10;65.80
70074;DHT22;57445;51.058;3.698;2022-09-12T11:00:02;26.10;66.30
70074;DHT22;57445;51.058;3.698;2022-09-12T11:02:43;26.40;65.20
70074;DHT22;57445;51.058;3.698;2022-09-12T11:05:21;26.80;64.20
70074;DHT22;57445;51.058;3.698;2022-09-12T11:07:57;27.00;64.00
70074;DHT22;57445;51.058;3.698;2022-09-12T11:10:33;27.20;63.00
70074;DHT22;57445;51.058;3.698;2022-09-12T11:13:11;26.60;63.90
70074;DHT22;57445;51.058;3.698;2022-09-12T11:15:56;26.70;63.90
70074;DHT22;57445;51.058;3.698;2022-09-12T11:18:43;26.70;63.60
70074;DHT22;57445;51.058;3.698;2022-09-12T11:21:28;26.50;63.10
70074;DHT22;57445;51.058;3.698;2022-09-12T11:24:21;26.60;63.40
70074;DHT22;57445;51.058;3.698;2022-09-12T11:26:59;27.00;63.10
70074;DHT22;57445;51.058;3.698;2022-09-12T11:29:47;27.10;63.10
70074;DHT22;57445;51.058;3.698;2022-09-12T11:32:40;27.30;62.50
70074;DHT22;57445;51.058;3.698;2022-09-12T11:35:17;27.50;61.80
70074;DHT22;57445;51.058;3.698;2022-09-12T11:37:57;27.70;60.70
70074;DHT22;57445;51.058;3.698;2022-09-12T11:40:30;27.80;61.20
70074;DHT22;57445;51.058;3.698;2022-09-12T11:43:04;27.90;60.90
70074;DHT22;57445;51.058;3.698;2022-09-12T11:45:40;27.60;60.60
70074;DHT22;57445;51.058;3.698;2022-09-12T11:48:17;27.30;61.90
70074;DHT22;57445;51.058;3.698;2022-09-12T11:50:50;26.30;63.60
70074;DHT22;57445;51.058;3.698;2022-09-12T11:53:22;25.30;66.20
70074;DHT22;57445;51.058;3.698;2022-09-12T11:55:55;25.30;67.30
70074;DHT22;57445;51.058;3.698;2022-09-12T11:58:27;25.90;64.30
70074;DHT22;57445;51.058;3.698;2022-09-12T12:01:08;26.50;64.20
70074;DHT22;57445;51.058;3.698;2022-09-12T12:03:41;26.50;63.70
70074;DHT22;57445;51.058;3.698;2022-09-12T12:06:12;25.70;64.10
70074;DHT22;57445;51.058;3.698;2022-09-12T12:08:45;26.40;63.60
70074;DHT22;57445;51.058;3.698;2022-09-12T12:11:27;26.50;63.40
70074;DHT22;57445;51.058;3.698;2022-09-12T12:14:02;26.90;62.40
70074;DHT22;57445;51.058;3.698;2022-09-12T12:16:39;27.40;61.00
70074;DHT22;57445;51.058;3.698;2022-09-12T12:19:17;27.70;59.60
70074;DHT22;57445;51.058;3.698;2022-09-12T12:21:49;27.40;60.20
70074;DHT22;57445;51.058;3.698;2022-09-12T12:24:19;27.40;60.10
70074;DHT22;57445;51.058;3.698;2022-09-12T12:26:56;27.40;58.40
70074;DHT22;57445;51.058;3.698;2022-09-12T12:29:36;26.60;61.60
70074;DHT22;57445;51.058;3.698;2022-09-12T12:32:24;26.90;60.60
70074;DHT22;57445;51.058;3.698;2022-09-12T12:38:03;27.40;59.70
70074;DHT22;57445;51.058;3.698;2022-09-12T12:40:36;27.50;58.90
70074;DHT22;57445;51.058;3.698;2022-09-12T12:46:11;28.20;57.70
70074;DHT22;57445;51.058;3.698;2022-09-12T12:49:06;28.40;57.50
70074;DHT22;57445;51.058;3.698;2022-09-12T12:51:58;28.50;57.30
70074;DHT22;57445;51.058;3.698;2022-09-12T12:57:28;28.40;57.40
70074;DHT22;57445;51.058;3.698;2022-09-12T12:59:57;28.30;57.30
70074;DHT22;57445;51.058;3.698;2022-09-12T13:02:29;28.50;56.60
70074;DHT22;57445;51.058;3.698;2022-09-12T13:05:03;28.60;56.10
70074;DHT22;57445;51.058;3.698;2022-09-12T13:07:38;28.20;56.30
70074;DHT22;57445;51.058;3.698;2022-09-12T13:10:07;28.20;56.40
70074;DHT22;57445;51.058;3.698;2022-09-12T13:12:42;27.50;57.00
70074;DHT22;57445;51.058;3.698;2022-09-12T13:18:13;27.30;58.90
70074;DHT22;57445;51.058;3.698;2022-09-12T13:20:52;27.30;59.10
70074;DHT22;57445;51.058;3.698;2022-09-12T13:23:25;27.80;57.70
70074;DHT22;57445;51.058;3.698;2022-09-12T13:25:59;27.80;57.50
70074;DHT22;57445;51.058;3.698;2022-09-12T13:28:27;27.60;58.10
70074;DHT22;57445;51.058;3.698;2022-09-12T13:31:00;27.60;58.00
70074;DHT22;57445;51.058;3.698;2022-09-12T13:33:33;27.80;57.20
70074;DHT22;57445;51.058;3.698;2022-09-12T13:36:43;28.00;57.00
70074;DHT22;57445;51.058;3.698;2022-09-12T13:39:16;27.90;57.20
70074;DHT22;57445;51.058;3.698;2022-09-12T13:44:42;27.90;56.70
70074;DHT22;57445;51.058;3.698;2022-09-12T13:47:13;27.50;57.90
70074;DHT22;57445;51.058;3.698;2022-09-12T13:49:43;27.60;58.60
70074;DHT22;57445;51.058;3.698;2022-09-12T13:52:20;27.50;58.50
70074;DHT22;57445;51.058;3.698;2022-09-12T13:54:52;28.10;57.60
70074;DHT22;57445;51.058;3.698;2022-09-12T13:57:31;28.40;56.60
70074;DHT22;57445;51.058;3.698;2022-09-12T14:00:00;28.70;55.80
70074;DHT22;57445;51.058;3.698;2022-09-12T14:02:38;28.90;55.70
70074;DHT22;57445;51.058;3.698;2022-09-12T14:05:17;28.50;56.50
70074;DHT22;57445;51.058;3.698;2022-09-12T14:07:54;28.20;57.20
70074;DHT22;57445;51.058;3.698;2022-09-12T14:10:29;28.30;57.20
70074;DHT22;57445;51.058;3.698;2022-09-12T14:12:59;28.50;56.30
70074;DHT22;57445;51.058;3.698;2022-09-12T14:15:35;28.60;55.30
70074;DHT22;57445;51.058;3.698;2022-09-12T14:18:05;28.70;55.10
70074;DHT22;57445;51.058;3.698;2022-09-12T14:20:36;28.90;55.00
70074;DHT22;57445;51.058;3.698;2022-09-12T14:23:17;28.50;55.80
70074;DHT22;57445;51.058;3.698;2022-09-12T14:25:45;27.30;58.10
70074;DHT22;57445;51.058;3.698;2022-09-12T14:28:15;26.80;59.70
70074;DHT22;57445;51.058;3.698;2022-09-12T14:30:57;27.20;59.00
70074;DHT22;57445;51.058;3.698;2022-09-12T14:33:32;27.60;56.40
70074;DHT22;57445;51.058;3.698;2022-09-12T14:36:10;28.30;55.40
70074;DHT22;57445;51.058;3.698;2022-09-12T14:38:42;28.30;56.10
70074;DHT22;57445;51.058;3.698;2022-09-12T14:41:13;28.00;56.30
70074;DHT22;57445;51.058;3.698;2022-09-12T14:43:51;28.20;55.90
70074;DHT22;57445;51.058;3.698;2022-09-12T14:46:24;28.50;55.30
70074;DHT22;57445;51.058;3.698;2022-09-12T14:48:54;28.20;55.90
70074;DHT22;57445;51.058;3.698;2022-09-12T14:51:26;27.60;56.60
70074;DHT22;57445;51.058;3.698;2022-09-12T14:53:56;28.00;56.90
70074;DHT22;57445;51.058;3.698;2022-09-12T14:56:37;28.30;56.20
70074;DHT22;57445;51.058;3.698;2022-09-12T14:59:27;28.10;56.40
70074;DHT22;57445;51.058;3.698;2022-09-12T15:02:23;28.40;56.00
70074;DHT22;57445;51.058;3.698;2022-09-12T15:04:53;28.50;55.50
70074;DHT22;57445;51.058;3.698;2022-09-12T15:07:31;28.00;56.00
70074;DHT22;57445;51.058;3.698;2022-09-12T15:10:03;28.00;55.70
70074;DHT22;57445;51.058;3.698;2022-09-12T15:12:30;28.00;55.80
70074;DHT22;57445;51.058;3.698;2022-09-12T15:15:03;28.10;55.50
70074;DHT22;57445;51.058;3.698;2022-09-12T15:17:38;27.80;55.10
70074;DHT22;57445;51.058;3.698;2022-09-12T15:20:06;27.70;55.70
70074;DHT22;57445;51.058;3.698;2022-09-12T15:22:41;27.20;57.10
70074;DHT22;57445;51.058;3.698;2022-09-12T15:25:11;27.40;56.70
70074;DHT22;57445;51.058;3.698;2022-09-12T15:27:39;27.90;55.60
70074;DHT22;57445;51.058;3.698;2022-09-12T15:30:08;28.20;54.90
70074;DHT22;57445;51.058;3.698;2022-09-12T15:32:39;28.70;53.90
70074;DHT22;57445;51.058;3.698;2022-09-12T15:35:11;28.80;53.80
70074;DHT22;57445;51.058;3.698;2022-09-12T15:37:40;29.20;53.20
70074;DHT22;57445;51.058;3.698;2022-09-12T15:40:11;28.90;53.50
70074;DHT22;57445;51.058;3.698;2022-09-12T15:42:41;28.80;53.80
70074;DHT22;57445;51.058;3.698;2022-09-12T15:45:21;28.50;54.30
70074;DHT22;57445;51.058;3.698;2022-09-12T15:47:49;28.80;53.40
70074;DHT22;57445;51.058;3.698;2022-09-12T15:50:17;28.70;53.70
70074;DHT22;57445;51.058;3.698;2022-09-12T15:52:49;28.50;54.30
70074;DHT22;57445;51.058;3.698;2022-09-12T15:55:25;28.60;53.80
70074;DHT22;57445;51.058;3.698;2022-09-12T15:57:54;28.40;54.10
70074;DHT22;57445;51.058;3.698;2022-09-12T16:00:22;28.30;54.30
70074;DHT22;57445;51.058;3.698;2022-09-12T16:02:51;28.20;55.50
70074;DHT22;57445;51.058;3.698;2022-09-12T16:05:20;28.00;55.70
70074;DHT22;57445;51.058;3.698;2022-09-12T16:07:50;27.90;55.50
70074;DHT22;57445;51.058;3.698;2022-09-12T16:10:21;27.90;55.30
70074;DHT22;57445;51.058;3.698;2022-09-12T16:12:50;27.90;55.40
70074;DHT22;57445;51.058;3.698;2022-09-12T16:15:20;27.60;56.00
70074;DHT22;57445;51.058;3.698;2022-09-12T16:17:49;27.80;55.50
70074;DHT22;57445;51.058;3.698;2022-09-12T16:20:21;27.70;55.50
70074;DHT22;57445;51.058;3.698;2022-09-12T16:22:54;27.80;55.30
70074;DHT22;57445;51.058;3.698;2022-09-12T16:25:21;27.80;55.20
70074;DHT22;57445;51.058;3.698;2022-09-12T16:27:56;27.90;55.80